Terminal Aerodrome Forecast
Issued by NWS Cleveland, OH

Home | Current Version | Previous Version | Text Only | Print | Product List | Glossary Off
Versions: 1 2 3 4 5 6 7 8 9 10 11 12 13 14 15 16 17 18 19 20 21 22 23 24 25 26 27 28

000
FTUS41 KCLE 151100
TAFYNG
TAF
KYNG 151139Z 1512/1612 13003KT 1/4SM FG VV002
      TEMPO 1512/1514 2SM BR OVC006
     FM151400 16003KT 1SM BR OVC006
      TEMPO 1514/1517 5SM BR SCT006 BKN015
     FM151700 14005KT 6SM BR BKN022
     FM160700 12008KT 5SM -RA BR OVC040=

USA.gov is the U.S. government's official web portal to all federal, state and local government web resources and services.